sensor_id;sensor_type;location;lat;lon;timestamp;P1;durP1;ratioP1;P2;durP2;ratioP2
30010;SDS011;16851;53.564;8.112;2022-11-23T00:03:21;17.17;;;9.30;;
30010;SDS011;16851;53.564;8.112;2022-11-23T00:08:26;17.43;;;7.90;;
30010;SDS011;16851;53.564;8.112;2022-11-23T00:13:28;14.50;;;8.07;;
30010;SDS011;16851;53.564;8.112;2022-11-23T00:18:33;14.97;;;9.00;;
30010;SDS011;16851;53.564;8.112;2022-11-23T00:23:44;18.37;;;7.77;;
30010;SDS011;16851;53.564;8.112;2022-11-23T00:28:55;18.63;;;8.20;;
30010;SDS011;16851;53.564;8.112;2022-11-23T00:34:04;13.77;;;8.30;;
30010;SDS011;16851;53.564;8.112;2022-11-23T00:39:11;14.47;;;7.07;;
30010;SDS011;16851;53.564;8.112;2022-11-23T00:44:17;14.67;;;7.40;;
30010;SDS011;16851;53.564;8.112;2022-11-23T00:49:20;14.33;;;7.47;;
30010;SDS011;16851;53.564;8.112;2022-11-23T00:54:23;16.07;;;7.27;;
30010;SDS011;16851;53.564;8.112;2022-11-23T00:59:25;14.83;;;7.10;;
30010;SDS011;16851;53.564;8.112;2022-11-23T01:04:36;13.63;;;6.40;;
30010;SDS011;16851;53.564;8.112;2022-11-23T01:09:39;12.07;;;6.30;;
30010;SDS011;16851;53.564;8.112;2022-11-23T01:14:41;13.93;;;6.87;;
30010;SDS011;16851;53.564;8.112;2022-11-23T01:19:45;15.03;;;6.90;;
30010;SDS011;16851;53.564;8.112;2022-11-23T01:24:49;13.93;;;7.30;;
30010;SDS011;16851;53.564;8.112;2022-11-23T01:29:56;17.00;;;6.90;;
30010;SDS011;16851;53.564;8.112;2022-11-23T01:35:02;11.50;;;6.83;;
30010;SDS011;16851;53.564;8.112;2022-11-23T01:40:06;10.67;;;6.33;;
30010;SDS011;16851;53.564;8.112;2022-11-23T01:50:35;14.43;;;5.87;;
30010;SDS011;16851;53.564;8.112;2022-11-23T01:55:39;10.83;;;6.07;;
30010;SDS011;16851;53.564;8.112;2022-11-23T02:00:41;13.07;;;6.77;;
30010;SDS011;16851;53.564;8.112;2022-11-23T02:05:52;8.97;;;5.80;;
30010;SDS011;16851;53.564;8.112;2022-11-23T02:11:01;15.80;;;6.50;;
30010;SDS011;16851;53.564;8.112;2022-11-23T02:16:03;13.77;;;6.97;;
30010;SDS011;16851;53.564;8.112;2022-11-23T02:21:08;15.83;;;6.80;;
30010;SDS011;16851;53.564;8.112;2022-11-23T02:26:23;11.43;;;6.33;;
30010;SDS011;16851;53.564;8.112;2022-11-23T02:31:46;10.93;;;6.40;;
30010;SDS011;16851;53.564;8.112;2022-11-23T02:37:00;15.13;;;7.33;;
30010;SDS011;16851;53.564;8.112;2022-11-23T02:42:08;12.23;;;7.33;;
30010;SDS011;16851;53.564;8.112;2022-11-23T02:47:19;11.07;;;6.63;;
30010;SDS011;16851;53.564;8.112;2022-11-23T02:52:33;12.77;;;7.70;;
30010;SDS011;16851;53.564;8.112;2022-11-23T02:57:35;14.07;;;7.40;;
30010;SDS011;16851;53.564;8.112;2022-11-23T03:02:37;14.83;;;8.17;;
30010;SDS011;16851;53.564;8.112;2022-11-23T03:07:45;14.97;;;7.83;;
30010;SDS011;16851;53.564;8.112;2022-11-23T03:12:47;14.57;;;7.60;;
30010;SDS011;16851;53.564;8.112;2022-11-23T03:17:49;16.60;;;8.43;;
30010;SDS011;16851;53.564;8.112;2022-11-23T03:22:53;15.47;;;8.27;;
30010;SDS011;16851;53.564;8.112;2022-11-23T03:27:57;14.33;;;8.03;;
30010;SDS011;16851;53.564;8.112;2022-11-23T03:33:03;18.07;;;8.70;;
30010;SDS011;16851;53.564;8.112;2022-11-23T03:38:05;19.67;;;8.90;;
30010;SDS011;16851;53.564;8.112;2022-11-23T03:43:07;13.70;;;8.70;;
30010;SDS011;16851;53.564;8.112;2022-11-23T03:48:09;16.87;;;8.10;;
30010;SDS011;16851;53.564;8.112;2022-11-23T03:53:13;15.70;;;8.47;;
30010;SDS011;16851;53.564;8.112;2022-11-23T03:58:15;12.20;;;9.07;;
30010;SDS011;16851;53.564;8.112;2022-11-23T04:03:18;17.87;;;10.13;;
30010;SDS011;16851;53.564;8.112;2022-11-23T04:08:45;19.80;;;11.10;;
30010;SDS011;16851;53.564;8.112;2022-11-23T04:13:56;18.47;;;10.40;;
30010;SDS011;16851;53.564;8.112;2022-11-23T04:18:57;16.73;;;10.23;;
30010;SDS011;16851;53.564;8.112;2022-11-23T04:24:06;17.73;;;10.57;;
30010;SDS011;16851;53.564;8.112;2022-11-23T04:29:10;17.03;;;10.87;;
30010;SDS011;16851;53.564;8.112;2022-11-23T04:34:19;17.67;;;10.97;;
30010;SDS011;16851;53.564;8.112;2022-11-23T04:39:23;19.40;;;14.20;;
30010;SDS011;16851;53.564;8.112;2022-11-23T04:44:56;18.03;;;12.57;;
30010;SDS011;16851;53.564;8.112;2022-11-23T04:50:00;18.87;;;13.30;;
30010;SDS011;16851;53.564;8.112;2022-11-23T04:55:04;23.53;;;12.20;;
30010;SDS011;16851;53.564;8.112;2022-11-23T05:00:10;18.77;;;12.33;;
30010;SDS011;16851;53.564;8.112;2022-11-23T05:05:12;18.27;;;12.10;;
30010;SDS011;16851;53.564;8.112;2022-11-23T05:10:21;17.40;;;13.77;;
30010;SDS011;16851;53.564;8.112;2022-11-23T05:15:30;22.47;;;13.67;;
30010;SDS011;16851;53.564;8.112;2022-11-23T05:20:34;20.13;;;12.53;;
30010;SDS011;16851;53.564;8.112;2022-11-23T05:25:36;22.37;;;13.63;;
30010;SDS011;16851;53.564;8.112;2022-11-23T05:30:47;21.67;;;14.13;;
30010;SDS011;16851;53.564;8.112;2022-11-23T05:35:49;20.33;;;13.63;;
30010;SDS011;16851;53.564;8.112;2022-11-23T05:41:07;20.20;;;14.60;;
30010;SDS011;16851;53.564;8.112;2022-11-23T05:46:17;21.67;;;14.87;;
30010;SDS011;16851;53.564;8.112;2022-11-23T05:51:19;25.57;;;16.23;;
30010;SDS011;16851;53.564;8.112;2022-11-23T05:56:25;22.53;;;15.07;;
30010;SDS011;16851;53.564;8.112;2022-11-23T06:01:45;21.23;;;16.20;;
30010;SDS011;16851;53.564;8.112;2022-11-23T06:06:58;22.53;;;16.70;;
30010;SDS011;16851;53.564;8.112;2022-11-23T06:12:17;24.33;;;17.07;;
30010;SDS011;16851;53.564;8.112;2022-11-23T06:17:22;25.60;;;16.83;;
30010;SDS011;16851;53.564;8.112;2022-11-23T06:22:27;27.40;;;18.03;;
30010;SDS011;16851;53.564;8.112;2022-11-23T06:27:35;23.13;;;18.27;;
30010;SDS011;16851;53.564;8.112;2022-11-23T06:32:49;26.97;;;19.20;;
30010;SDS011;16851;53.564;8.112;2022-11-23T06:37:52;33.30;;;19.97;;
30010;SDS011;16851;53.564;8.112;2022-11-23T06:42:58;31.03;;;19.73;;
30010;SDS011;16851;53.564;8.112;2022-11-23T06:48:21;30.77;;;19.57;;
30010;SDS011;16851;53.564;8.112;2022-11-23T06:53:26;31.20;;;21.00;;
30010;SDS011;16851;53.564;8.112;2022-11-23T06:58:36;32.90;;;21.47;;
30010;SDS011;16851;53.564;8.112;2022-11-23T07:03:43;31.93;;;21.27;;
30010;SDS011;16851;53.564;8.112;2022-11-23T07:08:58;32.10;;;21.57;;
30010;SDS011;16851;53.564;8.112;2022-11-23T07:14:11;35.90;;;22.20;;
30010;SDS011;16851;53.564;8.112;2022-11-23T07:19:19;33.50;;;22.30;;
30010;SDS011;16851;53.564;8.112;2022-11-23T07:24:25;37.23;;;21.77;;
30010;SDS011;16851;53.564;8.112;2022-11-23T07:29:26;32.33;;;21.57;;
30010;SDS011;16851;53.564;8.112;2022-11-23T07:34:29;35.13;;;23.50;;
30010;SDS011;16851;53.564;8.112;2022-11-23T07:39:31;36.60;;;22.87;;
30010;SDS011;16851;53.564;8.112;2022-11-23T07:44:54;37.10;;;22.13;;
30010;SDS011;16851;53.564;8.112;2022-11-23T07:49:58;35.50;;;23.00;;
30010;SDS011;16851;53.564;8.112;2022-11-23T07:55:00;33.63;;;22.50;;
30010;SDS011;16851;53.564;8.112;2022-11-23T08:00:02;35.47;;;22.10;;
30010;SDS011;16851;53.564;8.112;2022-11-23T08:05:12;35.37;;;22.97;;
30010;SDS011;16851;53.564;8.112;2022-11-23T08:10:15;33.43;;;22.73;;
30010;SDS011;16851;53.564;8.112;2022-11-23T08:15:17;36.90;;;23.27;;
30010;SDS011;16851;53.564;8.112;2022-11-23T08:20:19;33.73;;;23.63;;
30010;SDS011;16851;53.564;8.112;2022-11-23T08:25:25;36.37;;;21.77;;
30010;SDS011;16851;53.564;8.112;2022-11-23T08:30:33;34.13;;;21.83;;
30010;SDS011;16851;53.564;8.112;2022-11-23T08:35:39;28.93;;;20.33;;
30010;SDS011;16851;53.564;8.112;2022-11-23T08:40:41;24.70;;;18.60;;
30010;SDS011;16851;53.564;8.112;2022-11-23T08:45:43;30.63;;;19.03;;
30010;SDS011;16851;53.564;8.112;2022-11-23T08:50:47;26.13;;;17.47;;
30010;SDS011;16851;53.564;8.112;2022-11-23T08:55:49;28.80;;;19.00;;
30010;SDS011;16851;53.564;8.112;2022-11-23T09:00:53;24.80;;;16.97;;
30010;SDS011;16851;53.564;8.112;2022-11-23T09:06:00;25.07;;;18.13;;
30010;SDS011;16851;53.564;8.112;2022-11-23T09:11:04;33.90;;;18.50;;
30010;SDS011;16851;53.564;8.112;2022-11-23T09:16:12;29.83;;;17.40;;
30010;SDS011;16851;53.564;8.112;2022-11-23T09:21:18;27.10;;;17.63;;
30010;SDS011;16851;53.564;8.112;2022-11-23T09:26:21;25.47;;;16.13;;
30010;SDS011;16851;53.564;8.112;2022-11-23T09:31:23;24.33;;;17.10;;
30010;SDS011;16851;53.564;8.112;2022-11-23T09:36:27;30.17;;;17.60;;
30010;SDS011;16851;53.564;8.112;2022-11-23T09:52:48;28.63;;;16.73;;
30010;SDS011;16851;53.564;8.112;2022-11-23T09:57:54;22.33;;;14.60;;
30010;SDS011;16851;53.564;8.112;2022-11-23T10:02:58;26.27;;;15.27;;
30010;SDS011;16851;53.564;8.112;2022-11-23T10:08:13;21.70;;;15.33;;
30010;SDS011;16851;53.564;8.112;2022-11-23T10:13:37;24.57;;;15.00;;
30010;SDS011;16851;53.564;8.112;2022-11-23T10:23:54;20.53;;;15.23;;
30010;SDS011;16851;53.564;8.112;2022-11-23T10:29:08;23.20;;;15.33;;
30010;SDS011;16851;53.564;8.112;2022-11-23T10:34:15;24.97;;;14.50;;
30010;SDS011;16851;53.564;8.112;2022-11-23T10:44:33;29.60;;;14.33;;
30010;SDS011;16851;53.564;8.112;2022-11-23T10:49:38;21.30;;;14.13;;
30010;SDS011;16851;53.564;8.112;2022-11-23T10:54:57;22.97;;;14.00;;
30010;SDS011;16851;53.564;8.112;2022-11-23T11:05:12;25.70;;;13.67;;
30010;SDS011;16851;53.564;8.112;2022-11-23T11:10:31;17.93;;;12.17;;
30010;SDS011;16851;53.564;8.112;2022-11-23T11:15:40;20.30;;;11.90;;
30010;SDS011;16851;53.564;8.112;2022-11-23T11:20:56;17.80;;;12.00;;
30010;SDS011;16851;53.564;8.112;2022-11-23T11:26:04;20.13;;;12.50;;
30010;SDS011;16851;53.564;8.112;2022-11-23T11:36:15;21.43;;;12.60;;
30010;SDS011;16851;53.564;8.112;2022-11-23T11:41:24;21.47;;;11.83;;
30010;SDS011;16851;53.564;8.112;2022-11-23T11:46:34;19.37;;;11.70;;
30010;SDS011;16851;53.564;8.112;2022-11-23T11:57:18;19.00;;;11.53;;
30010;SDS011;16851;53.564;8.112;2022-11-23T12:02:28;16.90;;;10.20;;
30010;SDS011;16851;53.564;8.112;2022-11-23T12:12:44;19.20;;;11.17;;
30010;SDS011;16851;53.564;8.112;2022-11-23T12:39:04;17.83;;;11.83;;
30010;SDS011;16851;53.564;8.112;2022-11-23T12:44:45;19.27;;;10.00;;
30010;SDS011;16851;53.564;8.112;2022-11-23T12:49:53;12.27;;;6.73;;
30010;SDS011;16851;53.564;8.112;2022-11-23T12:55:17;11.43;;;6.70;;
30010;SDS011;16851;53.564;8.112;2022-11-23T13:00:34;12.73;;;6.10;;
30010;SDS011;16851;53.564;8.112;2022-11-23T13:21:22;15.90;;;4.70;;
30010;SDS011;16851;53.564;8.112;2022-11-23T13:26:30;12.15;;;4.28;;
30010;SDS011;16851;53.564;8.112;2022-11-23T13:31:38;12.07;;;4.88;;
30010;SDS011;16851;53.564;8.112;2022-11-23T13:36:43;15.18;;;5.45;;
30010;SDS011;16851;53.564;8.112;2022-11-23T13:42:15;14.63;;;5.13;;
30010;SDS011;16851;53.564;8.112;2022-11-23T13:47:20;21.70;;;4.93;;
30010;SDS011;16851;53.564;8.112;2022-11-23T13:52:25;11.13;;;4.03;;
30010;SDS011;16851;53.564;8.112;2022-11-23T13:57:28;16.90;;;4.22;;
30010;SDS011;16851;53.564;8.112;2022-11-23T14:02:30;16.03;;;4.43;;
30010;SDS011;16851;53.564;8.112;2022-11-23T14:07:38;8.88;;;3.30;;
30010;SDS011;16851;53.564;8.112;2022-11-23T14:12:48;16.35;;;3.85;;
30010;SDS011;16851;53.564;8.112;2022-11-23T14:23:16;13.23;;;3.55;;
30010;SDS011;16851;53.564;8.112;2022-11-23T14:45:00;10.10;;;2.80;;
30010;SDS011;16851;53.564;8.112;2022-11-23T14:50:05;11.97;;;3.10;;
30010;SDS011;16851;53.564;8.112;2022-11-23T14:55:27;11.37;;;2.53;;
30010;SDS011;16851;53.564;8.112;2022-11-23T15:00:38;13.13;;;3.33;;
30010;SDS011;16851;53.564;8.112;2022-11-23T15:05:52;11.07;;;2.50;;
30010;SDS011;16851;53.564;8.112;2022-11-23T15:11:14;10.03;;;2.63;;
30010;SDS011;16851;53.564;8.112;2022-11-23T15:16:19;11.83;;;2.70;;
30010;SDS011;16851;53.564;8.112;2022-11-23T15:21:25;10.50;;;2.67;;
30010;SDS011;16851;53.564;8.112;2022-11-23T15:26:30;8.23;;;2.40;;
30010;SDS011;16851;53.564;8.112;2022-11-23T15:31:52;12.07;;;2.67;;
30010;SDS011;16851;53.564;8.112;2022-11-23T15:37:15;10.77;;;2.43;;
30010;SDS011;16851;53.564;8.112;2022-11-23T15:42:18;7.13;;;2.40;;
30010;SDS011;16851;53.564;8.112;2022-11-23T15:47:22;8.33;;;2.53;;
30010;SDS011;16851;53.564;8.112;2022-11-23T15:52:32;10.17;;;2.67;;
30010;SDS011;16851;53.564;8.112;2022-11-23T15:57:36;13.40;;;2.93;;
30010;SDS011;16851;53.564;8.112;2022-11-23T16:02:40;11.40;;;2.80;;
30010;SDS011;16851;53.564;8.112;2022-11-23T16:07:51;9.67;;;2.77;;
30010;SDS011;16851;53.564;8.112;2022-11-23T16:13:04;12.90;;;2.47;;
30010;SDS011;16851;53.564;8.112;2022-11-23T16:23:21;11.30;;;2.73;;
30010;SDS011;16851;53.564;8.112;2022-11-23T16:28:38;10.83;;;2.50;;
30010;SDS011;16851;53.564;8.112;2022-11-23T16:33:48;8.63;;;2.27;;
30010;SDS011;16851;53.564;8.112;2022-11-23T16:38:50;9.50;;;2.63;;
30010;SDS011;16851;53.564;8.112;2022-11-23T16:43:54;6.40;;;2.13;;
30010;SDS011;16851;53.564;8.112;2022-11-23T16:48:59;9.70;;;2.70;;
30010;SDS011;16851;53.564;8.112;2022-11-23T16:54:02;11.33;;;5.00;;
30010;SDS011;16851;53.564;8.112;2022-11-23T16:59:25;10.60;;;3.23;;
30010;SDS011;16851;53.564;8.112;2022-11-23T17:04:31;8.83;;;2.53;;
30010;SDS011;16851;53.564;8.112;2022-11-23T17:09:33;8.97;;;2.73;;
30010;SDS011;16851;53.564;8.112;2022-11-23T17:14:38;7.07;;;2.70;;
30010;SDS011;16851;53.564;8.112;2022-11-23T17:19:42;11.57;;;3.30;;
30010;SDS011;16851;53.564;8.112;2022-11-23T17:24:51;12.43;;;2.73;;
30010;SDS011;16851;53.564;8.112;2022-11-23T17:29:56;14.77;;;4.20;;
30010;SDS011;16851;53.564;8.112;2022-11-23T17:35:04;9.30;;;3.47;;
30010;SDS011;16851;53.564;8.112;2022-11-23T17:40:18;16.80;;;5.70;;
30010;SDS011;16851;53.564;8.112;2022-11-23T17:45:26;33.63;;;13.37;;
30010;SDS011;16851;53.564;8.112;2022-11-23T17:50:30;26.97;;;10.33;;
30010;SDS011;16851;53.564;8.112;2022-11-23T17:55:34;19.37;;;6.80;;
30010;SDS011;16851;53.564;8.112;2022-11-23T18:00:35;18.67;;;4.17;;
30010;SDS011;16851;53.564;8.112;2022-11-23T18:05:40;12.50;;;4.17;;
30010;SDS011;16851;53.564;8.112;2022-11-23T18:10:45;15.63;;;5.47;;
30010;SDS011;16851;53.564;8.112;2022-11-23T18:15:51;13.00;;;4.73;;
30010;SDS011;16851;53.564;8.112;2022-11-23T18:20:55;11.73;;;3.43;;
30010;SDS011;16851;53.564;8.112;2022-11-23T18:26:01;10.37;;;3.73;;
30010;SDS011;16851;53.564;8.112;2022-11-23T18:31:16;9.17;;;3.43;;
30010;SDS011;16851;53.564;8.112;2022-11-23T18:36:25;11.67;;;3.90;;
30010;SDS011;16851;53.564;8.112;2022-11-23T18:41:27;11.87;;;4.17;;
30010;SDS011;16851;53.564;8.112;2022-11-23T18:46:33;10.93;;;3.73;;
30010;SDS011;16851;53.564;8.112;2022-11-23T18:51:42;10.93;;;3.73;;
30010;SDS011;16851;53.564;8.112;2022-11-23T18:56:47;13.27;;;4.23;;
30010;SDS011;16851;53.564;8.112;2022-11-23T19:01:51;12.57;;;4.23;;
30010;SDS011;16851;53.564;8.112;2022-11-23T19:06:53;16.00;;;4.30;;
30010;SDS011;16851;53.564;8.112;2022-11-23T19:11:54;9.00;;;3.60;;
30010;SDS011;16851;53.564;8.112;2022-11-23T19:17:01;12.30;;;3.93;;
30010;SDS011;16851;53.564;8.112;2022-11-23T19:22:03;15.80;;;4.70;;
30010;SDS011;16851;53.564;8.112;2022-11-23T19:27:10;15.33;;;4.87;;
30010;SDS011;16851;53.564;8.112;2022-11-23T19:32:14;13.63;;;4.47;;
30010;SDS011;16851;53.564;8.112;2022-11-23T19:37:21;16.60;;;4.53;;
30010;SDS011;16851;53.564;8.112;2022-11-23T19:42:28;15.40;;;4.40;;
30010;SDS011;16851;53.564;8.112;2022-11-23T19:47:32;11.57;;;4.10;;
30010;SDS011;16851;53.564;8.112;2022-11-23T19:52:35;12.07;;;3.73;;
30010;SDS011;16851;53.564;8.112;2022-11-23T19:58:00;14.50;;;3.63;;
30010;SDS011;16851;53.564;8.112;2022-11-23T20:03:04;14.60;;;4.13;;
30010;SDS011;16851;53.564;8.112;2022-11-23T20:08:09;13.23;;;4.30;;
30010;SDS011;16851;53.564;8.112;2022-11-23T20:13:14;21.27;;;4.63;;
30010;SDS011;16851;53.564;8.112;2022-11-23T20:18:27;13.47;;;4.10;;
30010;SDS011;16851;53.564;8.112;2022-11-23T20:23:33;12.83;;;4.40;;
30010;SDS011;16851;53.564;8.112;2022-11-23T20:28:36;22.70;;;7.23;;
30010;SDS011;16851;53.564;8.112;2022-11-23T20:33:40;16.60;;;6.90;;
30010;SDS011;16851;53.564;8.112;2022-11-23T20:38:48;23.37;;;6.83;;
30010;SDS011;16851;53.564;8.112;2022-11-23T20:43:54;37.63;;;13.67;;
30010;SDS011;16851;53.564;8.112;2022-11-23T20:48:58;30.60;;;11.23;;
30010;SDS011;16851;53.564;8.112;2022-11-23T20:54:03;33.73;;;11.97;;
30010;SDS011;16851;53.564;8.112;2022-11-23T20:59:05;49.00;;;15.33;;
30010;SDS011;16851;53.564;8.112;2022-11-23T21:04:09;31.93;;;12.23;;
30010;SDS011;16851;53.564;8.112;2022-11-23T21:09:11;29.27;;;8.23;;
30010;SDS011;16851;53.564;8.112;2022-11-23T21:14:19;24.60;;;8.50;;
30010;SDS011;16851;53.564;8.112;2022-11-23T21:19:24;17.47;;;8.23;;
30010;SDS011;16851;53.564;8.112;2022-11-23T21:24:27;18.90;;;8.23;;
30010;SDS011;16851;53.564;8.112;2022-11-23T21:29:32;17.37;;;6.67;;
30010;SDS011;16851;53.564;8.112;2022-11-23T21:34:40;18.47;;;6.83;;
30010;SDS011;16851;53.564;8.112;2022-11-23T21:39:44;20.67;;;7.47;;
30010;SDS011;16851;53.564;8.112;2022-11-23T21:44:55;22.63;;;7.50;;
30010;SDS011;16851;53.564;8.112;2022-11-23T21:49:59;15.00;;;6.43;;
30010;SDS011;16851;53.564;8.112;2022-11-23T21:55:05;21.20;;;6.90;;
30010;SDS011;16851;53.564;8.112;2022-11-23T22:00:08;15.93;;;6.37;;
30010;SDS011;16851;53.564;8.112;2022-11-23T22:05:14;23.10;;;7.43;;
30010;SDS011;16851;53.564;8.112;2022-11-23T22:10:23;19.90;;;6.50;;
30010;SDS011;16851;53.564;8.112;2022-11-23T22:15:30;17.00;;;6.80;;
30010;SDS011;16851;53.564;8.112;2022-11-23T22:20:35;17.80;;;7.67;;
30010;SDS011;16851;53.564;8.112;2022-11-23T22:25:39;16.27;;;6.67;;
30010;SDS011;16851;53.564;8.112;2022-11-23T22:30:51;16.30;;;7.37;;
30010;SDS011;16851;53.564;8.112;2022-11-23T22:36:06;19.63;;;8.73;;
30010;SDS011;16851;53.564;8.112;2022-11-23T22:41:14;19.63;;;8.80;;
30010;SDS011;16851;53.564;8.112;2022-11-23T22:46:19;19.43;;;8.03;;
30010;SDS011;16851;53.564;8.112;2022-11-23T22:51:28;14.57;;;8.67;;
30010;SDS011;16851;53.564;8.112;2022-11-23T22:56:31;21.43;;;9.10;;
30010;SDS011;16851;53.564;8.112;2022-11-23T23:01:35;19.00;;;9.33;;
30010;SDS011;16851;53.564;8.112;2022-11-23T23:06:40;19.83;;;9.87;;
30010;SDS011;16851;53.564;8.112;2022-11-23T23:11:45;19.23;;;10.43;;
30010;SDS011;16851;53.564;8.112;2022-11-23T23:16:52;16.53;;;9.97;;
30010;SDS011;16851;53.564;8.112;2022-11-23T23:21:58;22.30;;;11.30;;
30010;SDS011;16851;53.564;8.112;2022-11-23T23:27:05;21.90;;;10.53;;
30010;SDS011;16851;53.564;8.112;2022-11-23T23:32:10;22.17;;;10.97;;
30010;SDS011;16851;53.564;8.112;2022-11-23T23:37:22;22.03;;;10.57;;
30010;SDS011;16851;53.564;8.112;2022-11-23T23:42:49;17.83;;;11.00;;
30010;SDS011;16851;53.564;8.112;2022-11-23T23:48:21;25.30;;;12.10;;
30010;SDS011;16851;53.564;8.112;2022-11-23T23:53:49;21.53;;;12.03;;
30010;SDS011;16851;53.564;8.112;2022-11-23T23:59:06;26.00;;;12.73;;
